METAR Data
IDs: Format: Raw Decoded Include TAF

Data at: 0339 UTC 24 Jun 2021

METAR for:KGEZ (Shelbyville Muni, IN, US)
Text:KGEZ 240253Z AUTO 14008KT 10SM CLR 19/12 A3012 RMK AO2 SLP194 T01940117 53002
Temperature: 19.4°C ( 67°F)
Dewpoint: 11.7°C ( 53°F) [RH = 61%]
Pressure (altimeter):30.12 inches Hg (1020.1 mb) [Sea level pressure: 1019.4 mb]
Winds:from the SE (140 degrees) at 9 MPH (8 knots; 4.1 m/s)
Visibility:10 or more sm (16+ km)
Ceiling:at least 12,000 feet AGL
Clouds:sky clear below 12,000 feet AGL
QC Flag:automated observation with no human augmentation